sensor_id;sensor_type;location;lat;lon;timestamp;P1;durP1;ratioP1;P2;durP2;ratioP2
34924;SDS011;21130;51.728;8.748;2024-01-16T00:00:19;10.52;;;5.50;;
34924;SDS011;21130;51.728;8.748;2024-01-16T00:02:46;10.65;;;4.88;;
34924;SDS011;21130;51.728;8.748;2024-01-16T00:05:12;11.00;;;4.53;;
34924;SDS011;21130;51.728;8.748;2024-01-16T00:07:39;6.75;;;4.43;;
34924;SDS011;21130;51.728;8.748;2024-01-16T00:10:07;9.80;;;5.45;;
34924;SDS011;21130;51.728;8.748;2024-01-16T00:12:34;11.45;;;4.65;;
34924;SDS011;21130;51.728;8.748;2024-01-16T00:15:01;8.07;;;4.30;;
34924;SDS011;21130;51.728;8.748;2024-01-16T00:17:28;11.40;;;5.03;;
34924;SDS011;21130;51.728;8.748;2024-01-16T00:19:54;10.93;;;5.00;;
34924;SDS011;21130;51.728;8.748;2024-01-16T00:22:20;10.60;;;5.55;;
34924;SDS011;21130;51.728;8.748;2024-01-16T00:24:47;19.73;;;6.10;;
34924;SDS011;21130;51.728;8.748;2024-01-16T00:27:13;10.00;;;5.70;;
34924;SDS011;21130;51.728;8.748;2024-01-16T00:29:40;8.50;;;5.13;;
34924;SDS011;21130;51.728;8.748;2024-01-16T00:32:07;9.25;;;6.25;;
34924;SDS011;21130;51.728;8.748;2024-01-16T00:34:34;12.90;;;6.80;;
34924;SDS011;21130;51.728;8.748;2024-01-16T00:37:00;14.52;;;8.20;;
34924;SDS011;21130;51.728;8.748;2024-01-16T00:39:27;10.63;;;9.40;;
34924;SDS011;21130;51.728;8.748;2024-01-16T00:51:17;20.73;;;12.52;;
34924;SDS011;21130;51.728;8.748;2024-01-16T00:53:43;20.52;;;12.82;;
34924;SDS011;21130;51.728;8.748;2024-01-16T00:56:10;15.13;;;11.95;;
34924;SDS011;21130;51.728;8.748;2024-01-16T00:58:36;24.25;;;12.93;;
34924;SDS011;21130;51.728;8.748;2024-01-16T01:01:02;19.30;;;12.23;;
34924;SDS011;21130;51.728;8.748;2024-01-16T01:03:29;12.82;;;10.40;;
34924;SDS011;21130;51.728;8.748;2024-01-16T01:05:56;18.38;;;10.75;;
34924;SDS011;21130;51.728;8.748;2024-01-16T01:08:24;20.52;;;11.63;;
34924;SDS011;21130;51.728;8.748;2024-01-16T01:10:50;12.95;;;7.93;;
34924;SDS011;21130;51.728;8.748;2024-01-16T01:13:17;14.88;;;8.60;;
34924;SDS011;21130;51.728;8.748;2024-01-16T01:15:43;10.55;;;7.25;;
34924;SDS011;21130;51.728;8.748;2024-01-16T01:18:10;14.55;;;7.85;;
34924;SDS011;21130;51.728;8.748;2024-01-16T01:20:36;11.38;;;6.72;;
34924;SDS011;21130;51.728;8.748;2024-01-16T01:23:05;14.50;;;7.05;;
34924;SDS011;21130;51.728;8.748;2024-01-16T01:25:34;12.00;;;6.78;;
34924;SDS011;21130;51.728;8.748;2024-01-16T01:28:00;12.18;;;6.00;;
34924;SDS011;21130;51.728;8.748;2024-01-16T01:30:27;12.25;;;5.80;;
34924;SDS011;21130;51.728;8.748;2024-01-16T01:32:53;11.30;;;5.85;;
34924;SDS011;21130;51.728;8.748;2024-01-16T01:35:19;10.73;;;5.97;;
34924;SDS011;21130;51.728;8.748;2024-01-16T01:37:46;11.13;;;5.88;;
34924;SDS011;21130;51.728;8.748;2024-01-16T01:40:34;14.75;;;6.78;;
34924;SDS011;21130;51.728;8.748;2024-01-16T01:43:22;12.02;;;7.15;;
34924;SDS011;21130;51.728;8.748;2024-01-16T01:46:11;17.48;;;7.60;;
34924;SDS011;21130;51.728;8.748;2024-01-16T01:48:40;13.48;;;8.02;;
34924;SDS011;21130;51.728;8.748;2024-01-16T01:51:09;14.20;;;9.18;;
34924;SDS011;21130;51.728;8.748;2024-01-16T01:53:36;13.13;;;8.77;;
34924;SDS011;21130;51.728;8.748;2024-01-16T01:56:07;14.60;;;8.93;;
34924;SDS011;21130;51.728;8.748;2024-01-16T01:58:36;16.38;;;9.93;;
34924;SDS011;21130;51.728;8.748;2024-01-16T02:01:03;19.20;;;11.55;;
34924;SDS011;21130;51.728;8.748;2024-01-16T02:03:32;17.10;;;10.30;;
34924;SDS011;21130;51.728;8.748;2024-01-16T02:06:03;21.58;;;10.65;;
34924;SDS011;21130;51.728;8.748;2024-01-16T02:08:30;19.95;;;11.25;;
34924;SDS011;21130;51.728;8.748;2024-01-16T02:10:59;16.00;;;10.55;;
34924;SDS011;21130;51.728;8.748;2024-01-16T02:13:27;16.67;;;11.48;;
34924;SDS011;21130;51.728;8.748;2024-01-16T02:15:53;18.40;;;11.60;;
34924;SDS011;21130;51.728;8.748;2024-01-16T02:18:20;18.20;;;12.30;;
34924;SDS011;21130;51.728;8.748;2024-01-16T02:20:46;20.02;;;12.45;;
34924;SDS011;21130;51.728;8.748;2024-01-16T02:23:13;18.65;;;11.95;;
34924;SDS011;21130;51.728;8.748;2024-01-16T02:25:42;18.95;;;11.88;;
34924;SDS011;21130;51.728;8.748;2024-01-16T02:28:09;16.15;;;11.55;;
34924;SDS011;21130;51.728;8.748;2024-01-16T02:30:36;19.30;;;12.25;;
34924;SDS011;21130;51.728;8.748;2024-01-16T02:33:02;20.73;;;12.50;;
34924;SDS011;21130;51.728;8.748;2024-01-16T02:35:29;20.00;;;12.40;;
34924;SDS011;21130;51.728;8.748;2024-01-16T02:37:56;20.83;;;13.40;;
34924;SDS011;21130;51.728;8.748;2024-01-16T02:40:22;23.90;;;13.90;;
34924;SDS011;21130;51.728;8.748;2024-01-16T02:42:50;23.02;;;14.07;;
34924;SDS011;21130;51.728;8.748;2024-01-16T02:45:17;21.75;;;14.90;;
34924;SDS011;21130;51.728;8.748;2024-01-16T02:47:44;21.63;;;15.15;;
34924;SDS011;21130;51.728;8.748;2024-01-16T02:50:10;23.92;;;16.33;;
34924;SDS011;21130;51.728;8.748;2024-01-16T02:52:37;27.70;;;17.27;;
34924;SDS011;21130;51.728;8.748;2024-01-16T02:55:04;26.10;;;18.00;;
34924;SDS011;21130;51.728;8.748;2024-01-16T02:57:31;27.17;;;18.38;;
34924;SDS011;21130;51.728;8.748;2024-01-16T02:59:59;29.35;;;19.50;;
34924;SDS011;21130;51.728;8.748;2024-01-16T03:02:26;27.23;;;19.42;;
34924;SDS011;21130;51.728;8.748;2024-01-16T03:04:52;31.33;;;20.00;;
34924;SDS011;21130;51.728;8.748;2024-01-16T03:07:18;29.13;;;19.73;;
34924;SDS011;21130;51.728;8.748;2024-01-16T03:09:45;29.80;;;19.10;;
34924;SDS011;21130;51.728;8.748;2024-01-16T03:12:11;32.35;;;20.50;;
34924;SDS011;21130;51.728;8.748;2024-01-16T03:14:38;30.08;;;20.63;;
34924;SDS011;21130;51.728;8.748;2024-01-16T03:17:06;30.10;;;20.27;;
34924;SDS011;21130;51.728;8.748;2024-01-16T03:19:32;27.00;;;19.35;;
34924;SDS011;21130;51.728;8.748;2024-01-16T03:21:59;31.85;;;19.83;;
34924;SDS011;21130;51.728;8.748;2024-01-16T03:24:25;30.08;;;18.73;;
34924;SDS011;21130;51.728;8.748;2024-01-16T03:26:52;31.27;;;19.58;;
34924;SDS011;21130;51.728;8.748;2024-01-16T03:29:18;29.88;;;19.23;;
34924;SDS011;21130;51.728;8.748;2024-01-16T03:31:45;30.20;;;20.73;;
34924;SDS011;21130;51.728;8.748;2024-01-16T03:34:13;34.55;;;20.15;;
34924;SDS011;21130;51.728;8.748;2024-01-16T03:36:42;29.95;;;19.83;;
34924;SDS011;21130;51.728;8.748;2024-01-16T03:39:09;33.00;;;19.05;;
34924;SDS011;21130;51.728;8.748;2024-01-16T03:41:36;32.72;;;19.60;;
34924;SDS011;21130;51.728;8.748;2024-01-16T03:44:09;31.70;;;19.35;;
34924;SDS011;21130;51.728;8.748;2024-01-16T03:46:36;32.00;;;19.67;;
34924;SDS011;21130;51.728;8.748;2024-01-16T03:49:02;31.23;;;19.48;;
34924;SDS011;21130;51.728;8.748;2024-01-16T03:51:30;32.85;;;19.50;;
34924;SDS011;21130;51.728;8.748;2024-01-16T03:53:56;27.67;;;19.08;;
34924;SDS011;21130;51.728;8.748;2024-01-16T03:56:23;27.52;;;18.88;;
34924;SDS011;21130;51.728;8.748;2024-01-16T04:01:57;30.90;;;18.90;;
34924;SDS011;21130;51.728;8.748;2024-01-16T04:04:23;28.55;;;18.80;;
34924;SDS011;21130;51.728;8.748;2024-01-16T04:06:51;31.15;;;20.15;;
34924;SDS011;21130;51.728;8.748;2024-01-16T04:09:17;29.27;;;19.52;;
34924;SDS011;21130;51.728;8.748;2024-01-16T04:11:44;33.80;;;19.20;;
34924;SDS011;21130;51.728;8.748;2024-01-16T04:14:12;29.05;;;19.45;;
34924;SDS011;21130;51.728;8.748;2024-01-16T04:16:38;27.08;;;18.35;;
34924;SDS011;21130;51.728;8.748;2024-01-16T04:19:05;30.60;;;19.75;;
34924;SDS011;21130;51.728;8.748;2024-01-16T04:21:31;27.40;;;18.98;;
34924;SDS011;21130;51.728;8.748;2024-01-16T04:23:59;27.65;;;18.42;;
34924;SDS011;21130;51.728;8.748;2024-01-16T04:26:25;28.35;;;18.48;;
34924;SDS011;21130;51.728;8.748;2024-01-16T04:28:51;32.10;;;19.90;;
34924;SDS011;21130;51.728;8.748;2024-01-16T04:31:18;31.45;;;18.35;;
34924;SDS011;21130;51.728;8.748;2024-01-16T04:33:47;31.77;;;19.40;;
34924;SDS011;21130;51.728;8.748;2024-01-16T04:36:13;34.22;;;20.05;;
34924;SDS011;21130;51.728;8.748;2024-01-16T04:38:40;31.15;;;19.33;;
34924;SDS011;21130;51.728;8.748;2024-01-16T04:41:08;31.48;;;19.45;;
34924;SDS011;21130;51.728;8.748;2024-01-16T04:43:36;30.92;;;18.65;;
34924;SDS011;21130;51.728;8.748;2024-01-16T04:46:02;31.13;;;19.10;;
34924;SDS011;21130;51.728;8.748;2024-01-16T04:48:29;31.67;;;18.95;;
34924;SDS011;21130;51.728;8.748;2024-01-16T04:50:55;34.78;;;19.60;;
34924;SDS011;21130;51.728;8.748;2024-01-16T04:53:22;35.05;;;19.58;;
34924;SDS011;21130;51.728;8.748;2024-01-16T04:55:48;27.45;;;18.08;;
34924;SDS011;21130;51.728;8.748;2024-01-16T04:58:16;30.73;;;18.95;;
34924;SDS011;21130;51.728;8.748;2024-01-16T05:00:44;29.23;;;18.33;;
34924;SDS011;21130;51.728;8.748;2024-01-16T05:03:11;28.92;;;17.42;;
34924;SDS011;21130;51.728;8.748;2024-01-16T05:05:38;28.30;;;18.42;;
34924;SDS011;21130;51.728;8.748;2024-01-16T05:08:04;31.60;;;18.38;;
34924;SDS011;21130;51.728;8.748;2024-01-16T05:10:31;26.48;;;16.67;;
34924;SDS011;21130;51.728;8.748;2024-01-16T05:12:57;30.90;;;17.42;;
34924;SDS011;21130;51.728;8.748;2024-01-16T05:15:25;23.73;;;16.90;;
34924;SDS011;21130;51.728;8.748;2024-01-16T05:17:52;25.85;;;16.77;;
34924;SDS011;21130;51.728;8.748;2024-01-16T05:20:19;29.05;;;16.65;;
34924;SDS011;21130;51.728;8.748;2024-01-16T05:22:46;25.10;;;17.83;;
34924;SDS011;21130;51.728;8.748;2024-01-16T05:25:12;29.65;;;17.52;;
34924;SDS011;21130;51.728;8.748;2024-01-16T05:27:39;31.58;;;19.75;;
34924;SDS011;21130;51.728;8.748;2024-01-16T05:30:05;29.38;;;18.33;;
34924;SDS011;21130;51.728;8.748;2024-01-16T05:32:34;30.15;;;18.98;;
34924;SDS011;21130;51.728;8.748;2024-01-16T05:35:01;29.10;;;18.40;;
34924;SDS011;21130;51.728;8.748;2024-01-16T05:37:28;27.15;;;17.92;;
34924;SDS011;21130;51.728;8.748;2024-01-16T05:39:54;28.75;;;19.08;;
34924;SDS011;21130;51.728;8.748;2024-01-16T05:42:21;29.80;;;18.10;;
34924;SDS011;21130;51.728;8.748;2024-01-16T05:44:48;30.42;;;18.90;;
34924;SDS011;21130;51.728;8.748;2024-01-16T05:47:14;26.85;;;17.65;;
34924;SDS011;21130;51.728;8.748;2024-01-16T05:49:43;26.95;;;17.13;;
34924;SDS011;21130;51.728;8.748;2024-01-16T05:52:09;28.58;;;18.23;;
34924;SDS011;21130;51.728;8.748;2024-01-16T05:54:36;29.33;;;18.33;;
34924;SDS011;21130;51.728;8.748;2024-01-16T05:57:02;29.92;;;17.50;;
34924;SDS011;21130;51.728;8.748;2024-01-16T05:59:31;31.02;;;18.25;;
34924;SDS011;21130;51.728;8.748;2024-01-16T06:01:58;27.92;;;17.85;;
34924;SDS011;21130;51.728;8.748;2024-01-16T06:04:24;27.55;;;17.83;;
34924;SDS011;21130;51.728;8.748;2024-01-16T06:06:53;30.33;;;18.02;;
34924;SDS011;21130;51.728;8.748;2024-01-16T06:09:19;34.13;;;18.48;;
34924;SDS011;21130;51.728;8.748;2024-01-16T06:11:45;27.80;;;17.25;;
34924;SDS011;21130;51.728;8.748;2024-01-16T06:14:13;29.67;;;17.52;;
34924;SDS011;21130;51.728;8.748;2024-01-16T06:16:44;34.17;;;19.48;;
34924;SDS011;21130;51.728;8.748;2024-01-16T06:19:11;31.65;;;18.30;;
34924;SDS011;21130;51.728;8.748;2024-01-16T06:21:37;30.42;;;19.75;;
34924;SDS011;21130;51.728;8.748;2024-01-16T06:24:06;30.40;;;18.98;;
34924;SDS011;21130;51.728;8.748;2024-01-16T06:26:32;32.38;;;19.23;;
34924;SDS011;21130;51.728;8.748;2024-01-16T06:28:59;35.17;;;19.13;;
34924;SDS011;21130;51.728;8.748;2024-01-16T06:31:25;31.33;;;18.33;;
34924;SDS011;21130;51.728;8.748;2024-01-16T06:33:52;30.90;;;19.58;;
34924;SDS011;21130;51.728;8.748;2024-01-16T06:36:18;31.85;;;20.02;;
34924;SDS011;21130;51.728;8.748;2024-01-16T06:38:44;32.28;;;20.70;;
34924;SDS011;21130;51.728;8.748;2024-01-16T06:41:12;31.25;;;19.98;;
34924;SDS011;21130;51.728;8.748;2024-01-16T06:43:39;30.00;;;19.45;;
34924;SDS011;21130;51.728;8.748;2024-01-16T06:46:06;33.42;;;20.60;;
34924;SDS011;21130;51.728;8.748;2024-01-16T06:48:34;32.33;;;20.40;;
34924;SDS011;21130;51.728;8.748;2024-01-16T06:51:01;31.85;;;20.17;;
34924;SDS011;21130;51.728;8.748;2024-01-16T06:53:27;32.38;;;20.13;;
34924;SDS011;21130;51.728;8.748;2024-01-16T06:55:53;33.08;;;20.60;;
34924;SDS011;21130;51.728;8.748;2024-01-16T06:58:21;35.60;;;22.33;;
34924;SDS011;21130;51.728;8.748;2024-01-16T07:00:48;31.98;;;20.95;;
34924;SDS011;21130;51.728;8.748;2024-01-16T07:03:14;33.35;;;21.45;;
34924;SDS011;21130;51.728;8.748;2024-01-16T07:11:59;35.92;;;21.17;;
34924;SDS011;21130;51.728;8.748;2024-01-16T07:14:27;34.63;;;22.10;;
34924;SDS011;21130;51.728;8.748;2024-01-16T07:16:53;32.13;;;21.40;;
34924;SDS011;21130;51.728;8.748;2024-01-16T07:19:20;37.30;;;21.60;;
34924;SDS011;21130;51.728;8.748;2024-01-16T07:21:46;31.73;;;20.52;;
34924;SDS011;21130;51.728;8.748;2024-01-16T07:24:12;30.73;;;20.60;;
34924;SDS011;21130;51.728;8.748;2024-01-16T07:26:39;32.80;;;20.33;;
34924;SDS011;21130;51.728;8.748;2024-01-16T07:29:06;32.08;;;20.98;;
34924;SDS011;21130;51.728;8.748;2024-01-16T07:31:36;31.58;;;21.60;;
34924;SDS011;21130;51.728;8.748;2024-01-16T07:34:02;33.15;;;21.20;;
34924;SDS011;21130;51.728;8.748;2024-01-16T07:36:30;32.30;;;20.95;;
34924;SDS011;21130;51.728;8.748;2024-01-16T07:38:56;34.83;;;20.20;;
34924;SDS011;21130;51.728;8.748;2024-01-16T07:41:22;31.95;;;21.10;;
34924;SDS011;21130;51.728;8.748;2024-01-16T07:43:49;30.33;;;21.10;;
34924;SDS011;21130;51.728;8.748;2024-01-16T07:46:16;31.95;;;20.27;;
34924;SDS011;21130;51.728;8.748;2024-01-16T07:48:44;30.42;;;20.02;;
34924;SDS011;21130;51.728;8.748;2024-01-16T07:51:10;34.42;;;20.40;;
34924;SDS011;21130;51.728;8.748;2024-01-16T07:53:37;35.40;;;21.63;;
34924;SDS011;21130;51.728;8.748;2024-01-16T07:56:03;39.40;;;20.77;;
34924;SDS011;21130;51.728;8.748;2024-01-16T07:58:30;35.22;;;21.17;;
34924;SDS011;21130;51.728;8.748;2024-01-16T08:00:56;33.53;;;22.20;;
34924;SDS011;21130;51.728;8.748;2024-01-16T08:03:23;33.55;;;21.02;;
34924;SDS011;21130;51.728;8.748;2024-01-16T08:05:50;32.38;;;21.00;;
34924;SDS011;21130;51.728;8.748;2024-01-16T08:08:17;30.83;;;19.98;;
34924;SDS011;21130;51.728;8.748;2024-01-16T08:10:45;32.92;;;20.58;;
34924;SDS011;21130;51.728;8.748;2024-01-16T08:13:12;30.88;;;19.92;;
34924;SDS011;21130;51.728;8.748;2024-01-16T08:15:39;32.72;;;20.45;;
34924;SDS011;21130;51.728;8.748;2024-01-16T08:18:05;31.27;;;20.20;;
34924;SDS011;21130;51.728;8.748;2024-01-16T08:20:31;36.42;;;20.70;;
34924;SDS011;21130;51.728;8.748;2024-01-16T08:22:59;31.05;;;18.98;;
34924;SDS011;21130;51.728;8.748;2024-01-16T08:25:25;37.25;;;20.63;;
34924;SDS011;21130;51.728;8.748;2024-01-16T08:27:52;28.77;;;19.42;;
34924;SDS011;21130;51.728;8.748;2024-01-16T08:30:19;29.13;;;19.08;;
34924;SDS011;21130;51.728;8.748;2024-01-16T08:32:45;29.25;;;19.98;;
34924;SDS011;21130;51.728;8.748;2024-01-16T08:35:12;30.45;;;20.02;;
34924;SDS011;21130;51.728;8.748;2024-01-16T08:37:38;32.40;;;19.63;;
34924;SDS011;21130;51.728;8.748;2024-01-16T08:40:07;25.92;;;18.27;;
34924;SDS011;21130;51.728;8.748;2024-01-16T08:42:34;26.90;;;17.17;;
34924;SDS011;21130;51.728;8.748;2024-01-16T08:45:00;29.55;;;18.02;;
34924;SDS011;21130;51.728;8.748;2024-01-16T08:47:27;27.63;;;18.42;;
34924;SDS011;21130;51.728;8.748;2024-01-16T08:49:53;25.52;;;16.70;;
34924;SDS011;21130;51.728;8.748;2024-01-16T08:52:20;24.02;;;17.20;;
34924;SDS011;21130;51.728;8.748;2024-01-16T08:54:46;28.02;;;16.88;;
34924;SDS011;21130;51.728;8.748;2024-01-16T08:57:14;21.90;;;15.80;;
34924;SDS011;21130;51.728;8.748;2024-01-16T08:59:41;26.25;;;16.05;;
34924;SDS011;21130;51.728;8.748;2024-01-16T09:02:07;26.27;;;16.75;;
34924;SDS011;21130;51.728;8.748;2024-01-16T09:04:34;26.70;;;16.25;;
34924;SDS011;21130;51.728;8.748;2024-01-16T09:07:00;25.88;;;16.33;;
34924;SDS011;21130;51.728;8.748;2024-01-16T09:09:29;22.35;;;16.08;;
34924;SDS011;21130;51.728;8.748;2024-01-16T09:11:55;21.52;;;15.57;;
34924;SDS011;21130;51.728;8.748;2024-01-16T09:14:25;23.23;;;15.65;;
34924;SDS011;21130;51.728;8.748;2024-01-16T09:16:52;23.60;;;15.82;;
34924;SDS011;21130;51.728;8.748;2024-01-16T09:19:19;24.58;;;16.17;;
34924;SDS011;21130;51.728;8.748;2024-01-16T09:21:45;23.00;;;16.02;;
34924;SDS011;21130;51.728;8.748;2024-01-16T09:24:11;24.10;;;15.32;;
34924;SDS011;21130;51.728;8.748;2024-01-16T09:26:38;23.02;;;15.38;;
34924;SDS011;21130;51.728;8.748;2024-01-16T09:29:04;21.73;;;15.02;;
34924;SDS011;21130;51.728;8.748;2024-01-16T09:31:32;21.30;;;14.90;;
34924;SDS011;21130;51.728;8.748;2024-01-16T09:33:58;24.55;;;15.48;;
34924;SDS011;21130;51.728;8.748;2024-01-16T09:36:25;20.45;;;15.38;;
34924;SDS011;21130;51.728;8.748;2024-01-16T09:38:51;23.75;;;14.20;;
34924;SDS011;21130;51.728;8.748;2024-01-16T09:41:18;24.48;;;15.73;;
34924;SDS011;21130;51.728;8.748;2024-01-16T09:43:45;22.90;;;15.68;;
34924;SDS011;21130;51.728;8.748;2024-01-16T09:46:13;27.13;;;15.23;;
34924;SDS011;21130;51.728;8.748;2024-01-16T09:48:43;23.52;;;16.20;;
34924;SDS011;21130;51.728;8.748;2024-01-16T09:51:10;21.70;;;15.23;;
34924;SDS011;21130;51.728;8.748;2024-01-16T09:53:39;25.45;;;16.30;;
34924;SDS011;21130;51.728;8.748;2024-01-16T09:56:06;21.77;;;15.05;;
34924;SDS011;21130;51.728;8.748;2024-01-16T09:58:39;22.02;;;15.27;;
34924;SDS011;21130;51.728;8.748;2024-01-16T10:01:07;24.33;;;15.60;;
34924;SDS011;21130;51.728;8.748;2024-01-16T10:03:34;22.90;;;15.45;;
34924;SDS011;21130;51.728;8.748;2024-01-16T10:06:03;23.77;;;15.32;;
34924;SDS011;21130;51.728;8.748;2024-01-16T10:08:31;22.30;;;14.07;;
34924;SDS011;21130;51.728;8.748;2024-01-16T10:10:57;24.35;;;14.27;;
34924;SDS011;21130;51.728;8.748;2024-01-16T10:13:24;21.10;;;13.98;;
34924;SDS011;21130;51.728;8.748;2024-01-16T10:15:52;20.52;;;13.93;;
34924;SDS011;21130;51.728;8.748;2024-01-16T10:18:23;23.23;;;14.25;;
34924;SDS011;21130;51.728;8.748;2024-01-16T10:20:52;21.00;;;13.68;;
34924;SDS011;21130;51.728;8.748;2024-01-16T10:23:24;20.38;;;13.88;;
34924;SDS011;21130;51.728;8.748;2024-01-16T10:28:32;18.60;;;12.68;;
34924;SDS011;21130;51.728;8.748;2024-01-16T10:31:01;18.15;;;11.82;;
34924;SDS011;21130;51.728;8.748;2024-01-16T10:33:28;18.90;;;12.93;;
34924;SDS011;21130;51.728;8.748;2024-01-16T10:36:01;18.33;;;11.10;;
34924;SDS011;21130;51.728;8.748;2024-01-16T10:38:35;18.88;;;11.82;;
34924;SDS011;21130;51.728;8.748;2024-01-16T10:41:04;18.98;;;11.02;;
34924;SDS011;21130;51.728;8.748;2024-01-16T10:43:31;15.55;;;10.90;;
34924;SDS011;21130;51.728;8.748;2024-01-16T10:46:06;17.65;;;10.90;;
34924;SDS011;21130;51.728;8.748;2024-01-16T10:48:33;15.13;;;8.63;;
34924;SDS011;21130;51.728;8.748;2024-01-16T10:51:00;16.58;;;8.77;;
34924;SDS011;21130;51.728;8.748;2024-01-16T10:53:28;16.92;;;8.98;;
34924;SDS011;21130;51.728;8.748;2024-01-16T10:56:00;14.82;;;8.90;;
34924;SDS011;21130;51.728;8.748;2024-01-16T10:58:28;11.43;;;7.65;;
34924;SDS011;21130;51.728;8.748;2024-01-16T11:00:57;11.25;;;7.13;;
34924;SDS011;21130;51.728;8.748;2024-01-16T11:04:06;13.10;;;7.07;;
34924;SDS011;21130;51.728;8.748;2024-01-16T11:06:33;12.63;;;8.13;;
34924;SDS011;21130;51.728;8.748;2024-01-16T11:09:01;15.27;;;7.65;;
34924;SDS011;21130;51.728;8.748;2024-01-16T11:11:28;22.73;;;8.05;;
34924;SDS011;21130;51.728;8.748;2024-01-16T11:13:56;13.98;;;7.55;;
34924;SDS011;21130;51.728;8.748;2024-01-16T11:16:24;10.80;;;6.80;;
34924;SDS011;21130;51.728;8.748;2024-01-16T11:18:51;10.15;;;7.00;;
34924;SDS011;21130;51.728;8.748;2024-01-16T11:21:18;15.07;;;6.57;;
34924;SDS011;21130;51.728;8.748;2024-01-16T11:23:46;11.45;;;6.00;;
34924;SDS011;21130;51.728;8.748;2024-01-16T11:26:25;12.77;;;6.40;;
34924;SDS011;21130;51.728;8.748;2024-01-16T11:28:52;10.70;;;4.95;;
34924;SDS011;21130;51.728;8.748;2024-01-16T11:31:27;13.55;;;4.80;;
34924;SDS011;21130;51.728;8.748;2024-01-16T11:33:55;13.77;;;4.90;;
34924;SDS011;21130;51.728;8.748;2024-01-16T11:39:18;11.02;;;3.97;;
34924;SDS011;21130;51.728;8.748;2024-01-16T11:41:49;14.45;;;4.88;;
34924;SDS011;21130;51.728;8.748;2024-01-16T11:44:39;9.48;;;4.32;;
34924;SDS011;21130;51.728;8.748;2024-01-16T11:47:07;13.15;;;4.70;;
34924;SDS011;21130;51.728;8.748;2024-01-16T11:49:35;10.45;;;3.70;;
34924;SDS011;21130;51.728;8.748;2024-01-16T11:52:03;8.27;;;3.67;;
34924;SDS011;21130;51.728;8.748;2024-01-16T11:54:30;11.85;;;3.67;;
34924;SDS011;21130;51.728;8.748;2024-01-16T11:57:09;11.02;;;3.83;;
34924;SDS011;21130;51.728;8.748;2024-01-16T11:59:58;6.78;;;3.03;;
34924;SDS011;21130;51.728;8.748;2024-01-16T12:02:45;8.93;;;3.22;;
34924;SDS011;21130;51.728;8.748;2024-01-16T12:05:15;6.88;;;3.22;;
34924;SDS011;21130;51.728;8.748;2024-01-16T12:07:44;15.40;;;3.85;;
34924;SDS011;21130;51.728;8.748;2024-01-16T12:10:12;7.80;;;3.58;;
34924;SDS011;21130;51.728;8.748;2024-01-16T12:12:38;9.95;;;3.67;;
34924;SDS011;21130;51.728;8.748;2024-01-16T12:15:05;7.32;;;3.40;;
34924;SDS011;21130;51.728;8.748;2024-01-16T12:17:35;12.90;;;3.65;;
34924;SDS011;21130;51.728;8.748;2024-01-16T12:20:15;8.93;;;4.20;;
34924;SDS011;21130;51.728;8.748;2024-01-16T12:22:43;8.15;;;3.30;;
34924;SDS011;21130;51.728;8.748;2024-01-16T12:25:10;9.00;;;3.22;;
34924;SDS011;21130;51.728;8.748;2024-01-16T12:27:37;12.93;;;3.10;;
34924;SDS011;21130;51.728;8.748;2024-01-16T12:30:04;7.03;;;3.03;;
34924;SDS011;21130;51.728;8.748;2024-01-16T12:32:32;10.40;;;2.88;;
34924;SDS011;21130;51.728;8.748;2024-01-16T12:34:58;5.90;;;2.25;;
34924;SDS011;21130;51.728;8.748;2024-01-16T12:37:25;9.05;;;2.53;;
34924;SDS011;21130;51.728;8.748;2024-01-16T12:39:53;7.47;;;3.10;;
34924;SDS011;21130;51.728;8.748;2024-01-16T12:42:22;7.05;;;2.38;;
34924;SDS011;21130;51.728;8.748;2024-01-16T12:44:49;6.45;;;2.30;;
34924;SDS011;21130;51.728;8.748;2024-01-16T12:47:16;7.38;;;2.88;;
34924;SDS011;21130;51.728;8.748;2024-01-16T12:49:44;7.18;;;2.78;;
34924;SDS011;21130;51.728;8.748;2024-01-16T12:52:16;6.78;;;2.85;;
34924;SDS011;21130;51.728;8.748;2024-01-16T12:54:45;9.50;;;2.50;;
34924;SDS011;21130;51.728;8.748;2024-01-16T12:57:17;8.88;;;2.72;;
34924;SDS011;21130;51.728;8.748;2024-01-16T12:59:45;8.30;;;2.80;;
34924;SDS011;21130;51.728;8.748;2024-01-16T13:02:19;9.48;;;2.83;;
34924;SDS011;21130;51.728;8.748;2024-01-16T13:04:45;7.95;;;2.80;;
34924;SDS011;21130;51.728;8.748;2024-01-16T13:07:15;7.45;;;2.70;;
34924;SDS011;21130;51.728;8.748;2024-01-16T13:09:43;6.50;;;2.45;;
34924;SDS011;21130;51.728;8.748;2024-01-16T13:12:09;7.95;;;2.58;;
34924;SDS011;21130;51.728;8.748;2024-01-16T13:14:46;8.60;;;3.17;;
34924;SDS011;21130;51.728;8.748;2024-01-16T13:17:12;5.95;;;2.80;;
34924;SDS011;21130;51.728;8.748;2024-01-16T13:19:40;10.75;;;2.63;;
34924;SDS011;21130;51.728;8.748;2024-01-16T13:22:07;9.77;;;3.00;;
34924;SDS011;21130;51.728;8.748;2024-01-16T13:24:33;6.13;;;2.45;;
34924;SDS011;21130;51.728;8.748;2024-01-16T13:27:03;6.90;;;2.65;;
34924;SDS011;21130;51.728;8.748;2024-01-16T13:29:32;7.03;;;3.15;;
34924;SDS011;21130;51.728;8.748;2024-01-16T13:32:02;11.80;;;2.88;;
34924;SDS011;21130;51.728;8.748;2024-01-16T13:34:29;10.18;;;2.88;;
34924;SDS011;21130;51.728;8.748;2024-01-16T13:36:56;8.00;;;2.60;;
34924;SDS011;21130;51.728;8.748;2024-01-16T13:39:25;8.95;;;2.83;;
34924;SDS011;21130;51.728;8.748;2024-01-16T13:41:51;10.90;;;2.95;;
34924;SDS011;21130;51.728;8.748;2024-01-16T13:44:18;11.10;;;2.65;;
34924;SDS011;21130;51.728;8.748;2024-01-16T13:46:44;6.97;;;2.90;;
34924;SDS011;21130;51.728;8.748;2024-01-16T13:49:12;7.25;;;2.95;;
34924;SDS011;21130;51.728;8.748;2024-01-16T13:51:38;10.80;;;3.58;;
34924;SDS011;21130;51.728;8.748;2024-01-16T13:54:07;11.52;;;3.15;;
34924;SDS011;21130;51.728;8.748;2024-01-16T13:56:34;11.73;;;3.30;;
34924;SDS011;21130;51.728;8.748;2024-01-16T13:59:00;6.57;;;3.28;;
34924;SDS011;21130;51.728;8.748;2024-01-16T14:01:27;6.75;;;3.10;;
34924;SDS011;21130;51.728;8.748;2024-01-16T14:03:54;7.15;;;2.85;;
34924;SDS011;21130;51.728;8.748;2024-01-16T14:06:21;8.95;;;3.58;;
34924;SDS011;21130;51.728;8.748;2024-01-16T14:08:48;8.32;;;2.97;;
34924;SDS011;21130;51.728;8.748;2024-01-16T14:11:14;6.00;;;2.97;;
34924;SDS011;21130;51.728;8.748;2024-01-16T14:13:41;8.02;;;3.00;;
34924;SDS011;21130;51.728;8.748;2024-01-16T14:16:08;7.97;;;3.30;;
34924;SDS011;21130;51.728;8.748;2024-01-16T14:18:35;5.55;;;2.80;;
34924;SDS011;21130;51.728;8.748;2024-01-16T14:21:02;9.07;;;3.53;;
34924;SDS011;21130;51.728;8.748;2024-01-16T14:23:31;8.77;;;3.00;;
34924;SDS011;21130;51.728;8.748;2024-01-16T14:25:57;7.00;;;2.90;;
34924;SDS011;21130;51.728;8.748;2024-01-16T14:28:24;6.72;;;3.20;;
34924;SDS011;21130;51.728;8.748;2024-01-16T14:30:52;6.60;;;3.10;;
34924;SDS011;21130;51.728;8.748;2024-01-16T14:33:18;14.80;;;3.95;;
34924;SDS011;21130;51.728;8.748;2024-01-16T14:35:45;8.32;;;3.13;;
34924;SDS011;21130;51.728;8.748;2024-01-16T14:38:12;5.80;;;2.80;;
34924;SDS011;21130;51.728;8.748;2024-01-16T14:40:40;9.05;;;3.22;;
34924;SDS011;21130;51.728;8.748;2024-01-16T14:43:06;6.72;;;3.15;;
34924;SDS011;21130;51.728;8.748;2024-01-16T14:45:33;7.35;;;3.05;;
34924;SDS011;21130;51.728;8.748;2024-01-16T14:48:00;8.13;;;3.33;;
34924;SDS011;21130;51.728;8.748;2024-01-16T14:50:29;8.65;;;3.22;;
34924;SDS011;21130;51.728;8.748;2024-01-16T14:52:55;7.38;;;2.88;;
34924;SDS011;21130;51.728;8.748;2024-01-16T14:55:22;10.45;;;3.90;;